Overview Statistics Trail Chart Weather Telemetry Raw packets
 

This is the latest recevied weather packets stored in our database for station/object MeshWX-1. If no packets are shown the sender has not sent any weather packets the latest 10 day(s).

<< 20 21 22 23 24 25 26 >>
Time Temp. Humidity Pressure Rain* Wind** Luminosity Snow
1788128824 22.22° C 58% 998.9 hPa - - - -
1788128540 22.78° C 55% 998.9 hPa - - - -
1788126663 22.78° C 55% 998.9 hPa - - - -
1788126380 22.78° C 55% 998.9 hPa - - - -
1788124563 23.33° C 53% 998.8 hPa - - - -
1788124310 23.33° C 53% 998.8 hPa - - - -
1788124218 24.44° C 51% 998.9 hPa - - - -
1788122466 24.44° C 51% 998.9 hPa - - - -
1788122258 24.44° C 51% 998.9 hPa - - - -
1788120423 25° C 51% 998.7 hPa - - - -
1788120224 25° C 51% 998.7 hPa - - - -
1788120111 25° C 50% 998.6 hPa - - - -
1788118443 25° C 50% 998.6 hPa - - - -
1788118244 25° C 50% 998.6 hPa - - - -
1788116403 25.56° C 46% 998.4 hPa - - - -
1788116210 25.56° C 46% 998.4 hPa - - - -
1788116113 26.67° C 42% 997.9 hPa - - - -
1788114244 26.67° C 42% 997.9 hPa - - - -
1788114103 26.67° C 42% 997.9 hPa - - - -
1788112142 27.78° C 39% 997.6 hPa - - - -
1788112033 27.78° C 39% 997.6 hPa - - - -
1788111901 30° C 36% 997.1 hPa - - - -
1788110102 30° C 36% 997.1 hPa - - - -
1788109999 30° C 36% 997.1 hPa - - - -
1788108122 31.67° C 33% 997 hPa - - - -

* Rain since midnight (hover to see other rain measurements)
** Current wind speed in m/s (hover to see current wind gust speed)